createdAt,value
2022-08-21T00:09:31.030Z,16.97
2022-08-21T00:19:33.254Z,13.73
2022-08-21T00:29:34.752Z,11.87
2022-08-21T00:39:36.253Z,12.83
2022-08-21T00:49:39.056Z,21.77
2022-08-21T00:59:41.595Z,28.97
2022-08-21T01:09:44.310Z,33.30
2022-08-21T01:19:45.814Z,30.13
2022-08-21T01:29:57.516Z,24.83
2022-08-21T01:39:59.276Z,21.40
2022-08-21T01:50:00.963Z,21.87
2022-08-21T02:00:05.047Z,18.50
2022-08-21T02:10:16.952Z,17.90
2022-08-21T02:20:28.260Z,16.43
2022-08-21T02:30:38.878Z,16.23
2022-08-21T02:40:43.877Z,16.30
2022-08-21T02:50:56.800Z,10.67
2022-08-21T03:00:59.317Z,11.20
2022-08-21T03:11:01.976Z,12.97
2022-08-21T03:21:03.706Z,12.60
2022-08-21T03:31:06.591Z,13.20
2022-08-21T03:41:08.889Z,13.17
2022-08-21T03:51:10.392Z,14.20
2022-08-21T04:01:12.049Z,14.83
2022-08-21T04:11:13.989Z,15.47
2022-08-21T04:21:15.502Z,16.03
2022-08-21T04:31:18.347Z,17.40
2022-08-21T04:41:27.846Z,16.73
2022-08-21T04:51:34.737Z,16.67
2022-08-21T05:01:38.754Z,16.97
2022-08-21T05:11:40.948Z,15.73
2022-08-21T05:21:44.952Z,13.73
2022-08-21T05:31:47.701Z,12.83
2022-08-21T05:41:50.180Z,11.53
2022-08-21T05:51:51.675Z,9.90
2022-08-21T06:01:53.685Z,8.00
2022-08-21T06:11:55.286Z,7.60
2022-08-21T06:21:56.801Z,6.67
2022-08-21T06:31:58.301Z,5.03
2022-08-21T06:42:01.103Z,4.70
2022-08-21T06:52:04.084Z,5.53
2022-08-21T07:02:05.760Z,5.60
2022-08-21T07:12:07.632Z,6.33
2022-08-21T07:22:09.238Z,6.70
2022-08-21T07:32:10.769Z,6.53
2022-08-21T07:42:12.331Z,8.43
2022-08-21T07:52:13.826Z,11.47
2022-08-21T08:02:30.416Z,11.83
2022-08-21T08:12:31.937Z,7.37
2022-08-21T08:22:35.665Z,5.07
2022-08-21T08:32:46.993Z,5.73
2022-08-21T08:42:48.581Z,6.00
2022-08-21T08:52:55.760Z,5.30
2022-08-21T09:03:00.799Z,5.72
2022-08-21T09:13:24.106Z,4.95
2022-08-21T09:24:03.135Z,5.53
2022-08-21T09:34:09.169Z,4.10
2022-08-21T09:44:10.721Z,5.13
2022-08-21T09:54:18.346Z,5.00
2022-08-21T10:04:28.944Z,4.28
2022-08-21T10:14:54.541Z,4.32
2022-08-21T10:25:31.752Z,4.88
2022-08-21T10:35:43.767Z,4.55
2022-08-21T10:46:09.678Z,3.08
2022-08-21T10:56:24.477Z,4.07
2022-08-21T11:06:31.085Z,4.35
2022-08-21T11:16:38.811Z,3.90
2022-08-21T11:27:05.962Z,4.03
2022-08-21T11:37:14.766Z,6.22
2022-08-21T11:47:26.651Z,3.65
2022-08-21T11:57:51.861Z,3.92
2022-08-21T12:08:15.182Z,4.25
2022-08-21T12:18:30.063Z,4.45
2022-08-21T12:28:32.385Z,4.82
2022-08-21T12:38:46.925Z,3.35
2022-08-21T12:48:57.535Z,3.20
2022-08-21T12:59:08.829Z,3.50
2022-08-21T13:09:17.202Z,4.13
2022-08-21T13:19:23.879Z,3.50
2022-08-21T13:29:32.052Z,3.05
2022-08-21T13:39:34.082Z,3.10
2022-08-21T13:49:43.467Z,3.20
2022-08-21T13:59:45.383Z,3.38
2022-08-21T14:09:47.785Z,2.80
2022-08-21T14:19:49.470Z,3.80
2022-08-21T14:29:50.941Z,3.38
2022-08-21T14:39:52.438Z,3.30
2022-08-21T14:49:54.943Z,3.47
2022-08-21T15:00:01.228Z,2.50
2022-08-21T15:10:03.907Z,2.95
2022-08-21T15:20:06.899Z,2.60
2022-08-21T15:30:08.911Z,2.47
2022-08-21T15:40:11.220Z,2.58
2022-08-21T15:50:14.286Z,2.70
2022-08-21T16:00:24.051Z,6.40
2022-08-21T16:10:29.779Z,3.33
2022-08-21T16:20:32.694Z,3.20
2022-08-21T16:30:35.013Z,2.97
2022-08-21T16:40:36.670Z,2.67
2022-08-21T16:50:38.433Z,7.93
2022-08-21T17:00:39.955Z,2.60
2022-08-21T17:10:47.926Z,2.50
2022-08-21T17:20:50.600Z,2.67
2022-08-21T17:30:57.574Z,2.93
2022-08-21T17:41:00.607Z,2.83
2022-08-21T17:51:02.338Z,6.20
2022-08-21T18:01:05.700Z,3.77
2022-08-21T18:11:07.597Z,5.33
2022-08-21T18:21:12.506Z,5.00
2022-08-21T18:31:14.250Z,4.80
2022-08-21T18:41:16.338Z,3.30
2022-08-21T18:51:17.842Z,3.77
2022-08-21T19:01:20.901Z,8.70
2022-08-21T19:11:25.049Z,3.83
2022-08-21T19:21:27.075Z,4.20
2022-08-21T19:31:32.477Z,4.17
2022-08-21T19:41:36.958Z,4.33
2022-08-21T19:51:38.677Z,4.70
2022-08-21T20:01:40.301Z,3.90
2022-08-21T20:11:48.851Z,5.60
2022-08-21T20:21:50.346Z,5.60
2022-08-21T20:31:52.007Z,5.20
2022-08-21T20:41:54.563Z,5.83
2022-08-21T20:51:58.645Z,5.30
2022-08-21T21:02:24.337Z,5.93
2022-08-21T21:12:34.920Z,6.03
2022-08-21T21:22:45.460Z,8.80
2022-08-21T21:32:47.781Z,29.83
2022-08-21T21:42:52.003Z,26.40
2022-08-21T21:53:12.389Z,21.17
2022-08-21T22:03:29.182Z,6.50
2022-08-21T22:13:56.053Z,6.80
2022-08-21T22:24:04.129Z,6.60
2022-08-21T22:34:19.413Z,5.70
2022-08-21T22:44:27.222Z,7.10
2022-08-21T22:54:35.442Z,7.37
2022-08-21T23:04:46.854Z,8.90
2022-08-21T23:14:54.748Z,11.30
2022-08-21T23:25:44.536Z,11.67
2022-08-21T23:36:21.486Z,21.47
2022-08-21T23:46:52.521Z,7.63
2022-08-21T23:57:26.642Z,6.60
